»·PEaware :: N313N KSNA-KCMA

N313N :: KSNA-KCMA

FLIGHT INFORMATION

Flight Status: Arrived
Operator: Privately registered:
United States
More flights under this callsign
Pilot: Damien O. (2415)
Aircraft: GULFSTREAM G-1159C GULFSTREAM 4
(GLF4)
More flights by this aircraft type
Origin: KSNA John Wayne-Orange Co
United States
Destination: KCMA Camarillo
United States
More flights between these airports :: More routes between these airports
Route: SXC V208 VTU
File this flight plan on PilotEdge
Remarks:
Altitude:
(Current/Filed)
8,000ft
Speed:
(Current/Filed)
250kts
Departed: 25-Jun-19 06:12 PM
Arrived: 25-Jun-19 07:22 PM
Distance/Time
Traveled:
69nm/1:10
Distance/Time
To Go:
Arrived

Flight Plot

Page will automatically refresh every two minutes.


Map Options




Map Legend


Flown Route
Filed Route
Departure Airport
Arrival Airport
Navaid (VOR, NDB)
Fix

Horizontal Profiles

Position Reports

Time Latitude Longitude Heading Altitude Ground
Speed
25-Jun-19 17:54 33.671443 -117.867245 26 64ft 0kts
25-Jun-19 17:55 33.671443 -117.867245 26 64ft 0kts
25-Jun-19 17:56 33.671443 -117.867245 26 64ft 0kts
25-Jun-19 17:57 33.671443 -117.867245 26 64ft 0kts
25-Jun-19 17:58 33.671443 -117.867245 26 64ft 0kts
25-Jun-19 17:59 33.671443 -117.867245 26 64ft 0kts
25-Jun-19 18:00 33.671468 -117.867230 26 64ft 0kts
25-Jun-19 18:01 33.671616 -117.867243 337 64ft 0kts
25-Jun-19 18:02 33.671647 -117.867258 337 64ft 0kts
25-Jun-19 18:03 33.671683 -117.867276 337 64ft 0kts
25-Jun-19 18:04 33.671719 -117.867294 337 64ft 0kts
25-Jun-19 18:05 33.671753 -117.867311 337 64ft 0kts
25-Jun-19 18:06 33.671788 -117.867329 337 64ft 0kts
25-Jun-19 18:07 33.671955 -117.867414 336 64ft 6kts
25-Jun-19 18:08 33.676549 -117.864943 25 64ft 35kts
25-Jun-19 18:09 33.680609 -117.863029 310 64ft 2kts
25-Jun-19 18:10 33.681035 -117.863908 296 64ft 25kts
25-Jun-19 18:11 33.668381 -117.873958 215 482ft 174kts
25-Jun-19 18:12 33.621208 -117.883435 187 1972ft 221kts
25-Jun-19 18:13 33.584774 -117.927408 241 3375ft 259kts
25-Jun-19 18:14 33.565208 -117.972498 241 4605ft 263kts
25-Jun-19 18:15 33.541460 -118.026876 241 5998ft 268kts
25-Jun-19 18:16 33.515426 -118.086055 241 7484ft 274kts
25-Jun-19 18:17 33.487805 -118.148227 241 8108ft 278kts
25-Jun-19 18:18 33.496288 -118.219720 311 8133ft 281kts
25-Jun-19 18:19 33.536834 -118.272028 311 8121ft 280kts
25-Jun-19 18:20 33.576575 -118.323218 311 8121ft 279kts
25-Jun-19 18:21 33.616255 -118.374328 311 8121ft 279kts
25-Jun-19 18:22 33.656866 -118.426617 311 8005ft 278kts
25-Jun-19 18:23 33.697127 -118.478431 312 8004ft 278kts
25-Jun-19 18:24 33.737461 -118.530326 312 8002ft 278kts
25-Jun-19 18:25 33.777392 -118.581716 312 7999ft 278kts
25-Jun-19 18:26 33.818519 -118.634763 312 7950ft 281kts
25-Jun-19 18:27 33.859275 -118.687440 311 6411ft 280kts
25-Jun-19 18:28 33.897706 -118.737029 311 6004ft 267kts
25-Jun-19 18:29 33.935832 -118.786297 311 6000ft 272kts
25-Jun-19 18:30 33.973106 -118.834488 311 6000ft 271kts
25-Jun-19 18:31 34.010870 -118.883364 311 6000ft 271kts
25-Jun-19 18:32 34.047156 -118.930371 311 6000ft 271kts
25-Jun-19 18:33 34.081592 -118.975016 311 6000ft 271kts
25-Jun-19 18:34 34.114992 -119.018341 311 5998ft 272kts
25-Jun-19 18:35 34.157815 -119.062614 331 6004ft 274kts
25-Jun-19 18:36 34.207415 -119.093358 332 5994ft 274kts
25-Jun-19 18:37 34.255618 -119.123192 332 5993ft 275kts
25-Jun-19 18:38 34.305790 -119.154240 332 5994ft 274kts
25-Jun-19 18:39 34.358350 -119.124684 87 6022ft 277kts
25-Jun-19 18:40 34.348615 -119.055917 102 5708ft 274kts
25-Jun-19 18:41 34.338648 -118.994964 102 4335ft 254kts
25-Jun-19 18:42 34.331840 -118.939812 96 3992ft 230kts
25-Jun-19 18:43 34.327171 -118.886252 96 3992ft 250kts
25-Jun-19 18:45 34.322553 -118.833756 96 3984ft 245kts
25-Jun-19 18:46 34.317973 -118.787563 112 3979ft 219kts
25-Jun-19 18:47 34.278466 -118.774097 186 3994ft 220kts
25-Jun-19 18:48 34.242817 -118.786079 196 3989ft 219kts
25-Jun-19 18:49 34.209774 -118.810175 259 3986ft 198kts
25-Jun-19 18:50 34.209238 -118.847260 268 3473ft 183kts
25-Jun-19 18:51 34.209323 -118.882104 268 2918ft 186kts
25-Jun-19 18:52 34.209987 -118.917531 270 2796ft 183kts
25-Jun-19 18:53 34.211125 -118.950433 270 2791ft 160kts
25-Jun-19 18:54 34.211977 -118.983170 269 2237ft 164kts
25-Jun-19 18:55 34.212195 -119.046295 266 1326ft 166kts
25-Jun-19 18:56 34.216946 -119.092743 271 793ft 190kts
25-Jun-19 18:57 34.216843 -119.176214 269 1107ft 224kts
25-Jun-19 18:58 34.250828 -119.237209 358 2002ft 237kts
25-Jun-19 18:58 34.285295 -119.218001 35 2965ft 248kts
25-Jun-19 19:00 34.316458 -119.264352 233 2370ft 258kts
25-Jun-19 19:01 34.290056 -119.304178 231 2973ft 259kts
25-Jun-19 19:01 34.264244 -119.335299 221 3000ft 258kts
25-Jun-19 19:03 34.227968 -119.376796 228 2996ft 217kts
25-Jun-19 19:04 34.200399 -119.415086 225 2997ft 227kts
25-Jun-19 19:04 34.156058 -119.396589 110 4572ft 271kts
25-Jun-19 19:05 34.145074 -119.327263 100 4996ft 273kts
25-Jun-19 19:07 34.134552 -119.251794 97 4999ft 272kts
25-Jun-19 19:07 34.128693 -119.199711 98 5001ft 272kts
25-Jun-19 19:08 34.121737 -119.136798 97 4986ft 273kts
25-Jun-19 19:09 34.116142 -119.078150 97 4314ft 269kts
25-Jun-19 19:10 34.113851 -119.024806 92 4308ft 270kts
25-Jun-19 19:11 34.112244 -118.949888 91 4304ft 270kts
25-Jun-19 19:12 34.110126 -118.844089 91 4294ft 218kts
25-Jun-19 19:13 34.168468 -118.801909 356 4123ft 230kts
25-Jun-19 19:14 34.207894 -118.826306 268 3300ft 177kts
25-Jun-19 19:15 34.208359 -118.867864 272 3159ft 188kts
25-Jun-19 19:16 34.210236 -118.911787 271 2804ft 182kts
25-Jun-19 19:17 34.212148 -118.955501 271 2376ft 160kts
25-Jun-19 19:18 34.213112 -119.011365 269 1182ft 154kts
25-Jun-19 19:19 34.213619 -119.052367 270 678ft 152kts
25-Jun-19 19:20 34.213665 -119.089441 270 85ft 67kts
25-Jun-19 19:21 34.213157 -119.095441 216 85ft 4kts
25-Jun-19 19:22 34.210918 -119.094540 100 85ft 15kts
25-Jun-19 19:23 34.210971 -119.090934 90 85ft 11kts
25-Jun-19 19:24 34.210928 -119.086493 91 85ft 12kts
25-Jun-19 19:25 34.210566 -119.085282 180 85ft 1kts
25-Jun-19 19:26 34.210546 -119.085282 180 85ft 0kts
25-Jun-19 19:27 34.210546 -119.085230 11 85ft 0kts

Navigation Log

Ident Type
Flight plan parsing failed, navigation log unavailable